VLLBVLPS

Guest
Details From VLLB - LUANG PHABANG INTL
To VLPS - PAKSE
Flight Number -
Tags generated
Created
Modified
Stats Distance 375 nm / 694 km
Max Altitude 35,000 ft / 10,668 m
Waypoints 7
Social Downloads 0
Likes 0
Share VATSIM

Download

Looking for another format? Having issues loading an existing format? Contact us
Advertisement - Login to hide

Notes

Basic altitude profile: - Ascent Rate: 2500ft/min - Ascent Speed: 250kts - Cruise Altitude: 35000ft - Cruise Speed: 420kts - Descent Rate: 1500ft/min - Descent Speed: 250kts Options: - Use NATs: yes - Use PACOTS: yes - Use low airways: yes - Use high airways: yes

Route

VLLB ALPHA W76 DELTA VLPS

ID Type Via Altitude Latitude Longitude Leg Dist Tot Dist Heading (true) Name
O VLLB APT - 0 ft / 0 m 19.89726˚ 102.16084˚ - 0 nm - LUANG PHABANG INTL
ALPHA FIX - 35,000 ft / 10,668 m 18.54467˚ 103.32294˚ 104 nm 104 nm 141° / 141° -
KADIN FIX W76 (AWY-HI) 35,000 ft / 10,668 m 18.45000˚ 104.00000˚ 38 nm 143 nm 98° / 98° -
TANGO FIX W76 (AWY-HI) 31,200 ft / 9,510 m 17.42500˚ 104.90500˚ 80 nm 223 nm 140° / 140° -
ASAV APT W76 (AWY-HI) 23,800 ft / 7,254 m 16.85583˚ 105.24389˚ 39 nm 263 nm 150° / 150° -
DELTA FIX W76 (AWY-LO) 11,100 ft / 3,383 m 16.00000˚ 105.75000˚ 59 nm 322 nm 150° / 151° -
O VLPS APT - 0 ft / 0 m 15.13205˚ 105.78142˚ 52 nm 374 nm 178° / 178° PAKSE

Altitude Profile

Advertisement - Login to hide

Weather


0- 5 10 15 20 25 30 35+ Temperature / ° C

Clouds and Precipitation
Forecast for 2017-12-13 12:00 UTC. Updated 5 minutes ago

Ground ~20,000 ft ~40,000 ft Winds

VLLB

Details ICAO VLLB (LPQ)
Name LUANG PHABANG INTL
Region Laos
Timezone Asia/Vientiane (UTC+7.0)
Stats Elevation 955 ft / 291 m (AMSL)
Location 19.897255° 102.160844°
Runways 1
Magnetic Variation 0.994° W

METAR

VLLB 130900Z 22004KT 9999 SCT020 32/19 Q1007 NOSIG

Decode

TAF

TAF VLLB 130500Z 1306/1406 14004KT 9999 FEW020 SCT060 TEMPO 1314/1320 5000 BR SCT016 BKN080

Decode

Departure Runways

ID Width Length Bearing (true) Bearing (mag) Surface Threshold Offset Overrun Length
06 148 ft / 45 m 7,224 ft / 2,202 m 61.07° 62.06° Asphalt 0 ft / 0 m 195 ft / 59 m
24 148 ft / 45 m 7,224 ft / 2,202 m 241.07° 242.06° Asphalt 0 ft / 0 m 195 ft / 59 m

VLPS

Details ICAO VLPS (PKZ)
Name PAKSE
Region Laos
Timezone Asia/Vientiane (UTC+7.0)
Stats Elevation 351 ft / 107 m (AMSL)
Location 15.132051° 105.781417°
Runways 1
Magnetic Variation 0.876° W

METAR

VLPS 130900Z 32002KT 9999 SCT020 FEW023TCU 32/23 Q1009 NOSIG

Decode

TAF

TAF VLPS 130500Z 1306/1406 18004KT 9999 SCT020 SCT050 FEW200

Decode

Destination Runways

ID Width Length Bearing (true) Bearing (mag) Surface Threshold Offset Overrun Length
15 118 ft / 36 m 5,350 ft / 1,631 m 147.12° 148.00° Concrete 0 ft / 0 m 660 ft / 201 m
33 118 ft / 36 m 5,350 ft / 1,631 m 327.12° 328.00° Concrete 0 ft / 0 m 627 ft / 191 m